createdAt,value
2018-10-19T00:00:14.459Z,11.80
2018-10-19T00:01:14.419Z,10.40
2018-10-19T00:02:14.384Z,9.30
2018-10-19T00:03:14.467Z,9.90
2018-10-19T00:04:14.315Z,10.60
2018-10-19T00:05:14.295Z,10.60
2018-10-19T00:06:14.243Z,9.80
2018-10-19T00:07:14.211Z,11.40
2018-10-19T00:08:14.185Z,10.00
2018-10-19T00:09:14.168Z,9.90
2018-10-19T00:10:14.109Z,10.60
2018-10-19T00:11:14.153Z,11.20
2018-10-19T00:12:14.033Z,10.50
2018-10-19T00:13:14.019Z,11.90
2018-10-19T00:14:13.966Z,13.30
2018-10-19T00:15:14.009Z,11.40
2018-10-19T00:16:13.896Z,12.60
2018-10-19T00:17:13.896Z,11.80
2018-10-19T00:18:13.822Z,12.10
2018-10-19T00:19:13.796Z,13.20
2018-10-19T00:20:13.753Z,11.40
2018-10-19T00:21:13.755Z,12.30
2018-10-19T00:22:13.679Z,13.10
2018-10-19T00:23:13.735Z,13.20
2018-10-19T00:24:13.621Z,13.10
2018-10-19T00:25:13.578Z,13.00
2018-10-19T00:26:13.538Z,13.00
2018-10-19T00:27:13.560Z,14.00
2018-10-19T00:28:13.476Z,14.10
2018-10-19T00:29:13.499Z,13.90
2018-10-19T00:30:13.398Z,13.60
2018-10-19T00:31:13.366Z,13.60
2018-10-19T00:32:13.329Z,13.10
2018-10-19T00:33:13.354Z,13.00
2018-10-19T00:34:13.263Z,13.90
2018-10-19T00:35:13.276Z,13.30
2018-10-19T00:36:13.185Z,13.50
2018-10-19T00:37:13.154Z,13.70
2018-10-19T00:38:13.115Z,14.70
2018-10-19T00:39:13.153Z,13.50
2018-10-19T00:40:13.051Z,13.60
2018-10-19T00:41:13.084Z,14.30
2018-10-19T00:42:12.972Z,14.80
2018-10-19T00:43:12.934Z,15.10
2018-10-19T00:44:12.901Z,15.80
2018-10-19T00:45:12.939Z,16.20
2018-10-19T00:46:12.833Z,18.20
2018-10-19T00:47:12.844Z,16.50
2018-10-19T00:48:12.759Z,16.00
2018-10-19T00:49:12.726Z,15.20
2018-10-19T00:50:12.699Z,15.60
2018-10-19T00:51:12.709Z,15.30
2018-10-19T00:52:12.621Z,15.40
2018-10-19T00:53:12.635Z,14.50
2018-10-19T00:54:12.549Z,14.80
2018-10-19T00:55:12.522Z,14.90
2018-10-19T00:56:12.477Z,15.30
2018-10-19T00:57:12.529Z,15.30
2018-10-19T00:58:12.411Z,16.90
2018-10-19T00:59:12.433Z,17.00
2018-10-19T01:00:12.345Z,17.20
2018-10-19T01:01:12.299Z,17.40
2018-10-19T01:02:12.264Z,17.90
2018-10-19T01:03:12.301Z,17.80
2018-10-19T01:04:12.194Z,18.50
2018-10-19T01:05:12.189Z,18.30
2018-10-19T01:06:12.130Z,17.90
2018-10-19T01:07:12.088Z,18.00
2018-10-19T01:08:12.053Z,16.60
2018-10-19T01:09:12.070Z,17.80
2018-10-19T01:10:11.979Z,17.00
2018-10-19T01:11:12.020Z,16.80
2018-10-19T01:12:11.936Z,17.10
2018-10-19T01:13:11.874Z,16.50
2018-10-19T01:14:11.837Z,15.90
2018-10-19T01:15:11.826Z,16.40
2018-10-19T01:16:11.776Z,16.50
2018-10-19T01:17:11.825Z,17.10
2018-10-19T01:18:11.696Z,16.60
2018-10-19T01:19:11.659Z,15.10
2018-10-19T01:20:11.670Z,14.60
2018-10-19T01:21:11.727Z,14.90
2018-10-19T01:22:11.554Z,15.10
2018-10-19T01:23:11.607Z,15.70
2018-10-19T01:24:11.483Z,15.00
2018-10-19T01:25:11.446Z,15.00
2018-10-19T01:26:11.419Z,15.40
2018-10-19T01:27:11.430Z,15.10
2018-10-19T01:28:11.344Z,14.50
2018-10-19T01:29:11.364Z,13.50
2018-10-19T01:30:11.270Z,14.80
2018-10-19T01:31:11.248Z,12.50
2018-10-19T01:32:11.204Z,12.90
2018-10-19T01:33:11.234Z,13.00
2018-10-19T01:34:11.130Z,13.10
2018-10-19T01:35:11.131Z,12.40
2018-10-19T01:36:11.078Z,12.40
2018-10-19T01:37:11.017Z,14.50
2018-10-19T01:38:10.989Z,12.90
2018-10-19T01:39:11.013Z,10.70
2018-10-19T01:40:10.917Z,12.70
2018-10-19T01:41:10.935Z,12.70
2018-10-19T01:42:10.854Z,13.90
2018-10-19T01:43:10.813Z,11.40
2018-10-19T01:44:10.773Z,12.80
2018-10-19T01:45:10.780Z,12.10
2018-10-19T01:46:10.702Z,12.70
2018-10-19T01:47:10.716Z,12.10
2018-10-19T01:48:10.637Z,12.10
2018-10-19T01:49:10.597Z,13.40
2018-10-19T01:50:10.571Z,12.30
2018-10-19T01:51:10.573Z,11.80
2018-10-19T01:52:10.503Z,13.10
2018-10-19T01:53:10.617Z,11.80
2018-10-19T01:54:10.420Z,11.70
2018-10-19T01:55:10.384Z,11.80
2018-10-19T01:56:10.349Z,11.70
2018-10-19T01:57:10.433Z,11.50
2018-10-19T01:58:10.286Z,11.70
2018-10-19T01:59:10.313Z,11.50
2018-10-19T02:00:10.207Z,10.50
2018-10-19T02:01:10.175Z,11.80
2018-10-19T02:02:10.160Z,12.50
2018-10-19T02:03:10.172Z,11.90
2018-10-19T02:04:10.066Z,12.60
2018-10-19T02:05:10.103Z,11.50
2018-10-19T02:06:09.994Z,10.70
2018-10-19T02:07:09.961Z,11.60
2018-10-19T02:08:09.938Z,12.00
2018-10-19T02:09:09.942Z,12.10
2018-10-19T02:10:11.485Z,11.40
2018-10-19T02:11:09.867Z,10.90
2018-10-19T02:12:09.784Z,12.20
2018-10-19T02:13:09.757Z,11.60
2018-10-19T02:14:09.712Z,10.10
2018-10-19T02:15:09.743Z,12.80
2018-10-19T02:16:09.641Z,12.60
2018-10-19T02:17:09.664Z,12.80
2018-10-19T02:18:09.581Z,11.50
2018-10-19T02:19:09.537Z,11.70
2018-10-19T02:20:09.507Z,12.60
2018-10-19T02:21:09.532Z,12.00
2018-10-19T02:22:09.436Z,12.20
2018-10-19T02:23:09.441Z,13.10
2018-10-19T02:24:09.363Z,11.80
2018-10-19T02:25:09.322Z,11.20
2018-10-19T02:26:09.288Z,11.10
2018-10-19T02:27:09.343Z,12.60
2018-10-19T02:28:09.225Z,11.80
2018-10-19T02:29:09.269Z,12.40
2018-10-19T02:30:09.149Z,12.30
2018-10-19T02:31:09.110Z,12.70
2018-10-19T02:32:09.080Z,11.80
2018-10-19T02:33:09.159Z,11.90
2018-10-19T02:34:09.004Z,12.90
2018-10-19T02:35:09.064Z,12.40
2018-10-19T02:36:08.934Z,13.00
2018-10-19T02:37:08.897Z,12.50
2018-10-19T02:38:08.865Z,12.30
2018-10-19T02:39:08.880Z,11.90
2018-10-19T02:40:08.789Z,12.90
2018-10-19T02:41:08.800Z,13.30
2018-10-19T02:42:08.721Z,13.00
2018-10-19T02:43:08.684Z,14.00
2018-10-19T02:44:08.664Z,14.20
2018-10-19T02:45:08.688Z,14.40
2018-10-19T02:46:08.578Z,12.90
2018-10-19T02:47:08.606Z,13.50
2018-10-19T02:48:08.536Z,14.00
2018-10-19T02:49:08.480Z,14.10
2018-10-19T02:50:08.438Z,14.20
2018-10-19T02:51:08.444Z,14.90
2018-10-19T02:52:08.365Z,13.90
2018-10-19T02:53:08.370Z,15.60
2018-10-19T02:54:08.317Z,14.90
2018-10-19T02:55:08.264Z,15.90
2018-10-19T02:56:08.223Z,15.20
2018-10-19T02:57:08.388Z,14.70
2018-10-19T02:58:08.152Z,14.40
2018-10-19T02:59:08.164Z,14.30
2018-10-19T03:00:08.089Z,15.50
2018-10-19T03:01:08.043Z,16.50
2018-10-19T03:02:08.008Z,17.50
2018-10-19T03:03:08.042Z,16.00
2018-10-19T03:04:07.940Z,15.50
2018-10-19T03:05:08.008Z,16.00
2018-10-19T03:06:07.864Z,15.80
2018-10-19T03:07:07.834Z,17.70
2018-10-19T03:08:07.796Z,14.60
2018-10-19T03:09:07.828Z,15.00
2018-10-19T03:10:07.741Z,15.60
2018-10-19T03:11:07.761Z,15.00
2018-10-19T03:12:07.653Z,17.50
2018-10-19T03:13:07.616Z,15.40
2018-10-19T03:14:07.582Z,17.50
2018-10-19T03:15:07.640Z,15.80
2018-10-19T03:16:07.516Z,17.30
2018-10-19T03:17:07.482Z,18.60
2018-10-19T03:18:07.444Z,17.30
2018-10-19T03:19:07.403Z,17.10
2018-10-19T03:20:07.374Z,16.60
2018-10-19T03:21:07.399Z,17.60
2018-10-19T03:22:07.295Z,18.60
2018-10-19T03:23:07.272Z,18.10
2018-10-19T03:24:07.224Z,19.20
2018-10-19T03:25:07.209Z,18.60
2018-10-19T03:26:07.152Z,19.40
2018-10-19T03:27:07.123Z,18.80
2018-10-19T03:28:07.077Z,18.50
2018-10-19T03:29:07.070Z,19.20
2018-10-19T03:30:07.010Z,20.30
2018-10-19T03:31:07.102Z,18.50
2018-10-19T03:32:06.949Z,18.10
2018-10-19T03:33:06.925Z,20.10
2018-10-19T03:34:06.865Z,18.70
2018-10-19T03:35:06.837Z,20.00
2018-10-19T03:36:06.805Z,18.60
2018-10-19T03:37:06.781Z,18.70
2018-10-19T03:38:06.728Z,18.80
2018-10-19T03:39:06.686Z,19.80
2018-10-19T03:40:06.648Z,20.40
2018-10-19T03:41:06.709Z,20.80
2018-10-19T03:42:06.578Z,20.10
2018-10-19T03:43:06.540Z,18.90
2018-10-19T03:44:06.501Z,21.80
2018-10-19T03:45:06.508Z,21.30
2018-10-19T03:46:06.453Z,21.80
2018-10-19T03:47:06.465Z,21.80
2018-10-19T03:48:06.358Z,20.90
2018-10-19T03:49:06.377Z,20.50
2018-10-19T03:50:06.287Z,21.90
2018-10-19T03:51:06.278Z,21.60
2018-10-19T03:52:06.224Z,22.50
2018-10-19T03:53:06.246Z,22.20
2018-10-19T03:54:06.143Z,22.90
2018-10-19T03:55:06.106Z,22.00
2018-10-19T03:56:06.069Z,22.40
2018-10-19T03:57:06.124Z,22.60
2018-10-19T03:58:05.999Z,21.10
2018-10-19T03:59:06.080Z,21.80
2018-10-19T04:00:05.927Z,22.30
2018-10-19T04:01:05.893Z,23.90
2018-10-19T04:02:05.870Z,21.90
2018-10-19T04:03:05.891Z,21.70
2018-10-19T04:04:05.783Z,21.60
2018-10-19T04:05:05.789Z,21.80
2018-10-19T04:06:05.708Z,21.20
2018-10-19T04:07:05.683Z,20.20
2018-10-19T04:08:05.638Z,18.60
2018-10-19T04:09:05.650Z,16.90
2018-10-19T04:10:05.560Z,17.30
2018-10-19T04:11:05.596Z,18.60
2018-10-19T04:12:05.505Z,19.20
2018-10-19T04:13:05.456Z,18.10
2018-10-19T04:14:05.421Z,17.70
2018-10-19T04:15:05.421Z,18.50
2018-10-19T04:16:05.353Z,18.30
2018-10-19T04:17:05.376Z,19.60
2018-10-19T04:18:05.273Z,19.30
2018-10-19T04:19:05.241Z,19.20
2018-10-19T04:20:05.204Z,20.20
2018-10-19T04:21:05.201Z,19.80
2018-10-19T04:22:05.150Z,18.80
2018-10-19T04:23:05.141Z,20.20
2018-10-19T04:24:05.062Z,18.80
2018-10-19T04:25:05.024Z,20.20
2018-10-19T04:26:04.994Z,18.40
2018-10-19T04:27:05.000Z,18.50
2018-10-19T04:28:04.929Z,19.40
2018-10-19T04:29:04.895Z,19.60
2018-10-19T04:30:04.842Z,18.60
2018-10-19T04:31:04.814Z,18.30
2018-10-19T04:32:04.774Z,19.10
2018-10-19T04:33:04.750Z,17.40
2018-10-19T04:34:04.701Z,18.40
2018-10-19T04:35:04.714Z,18.10
2018-10-19T04:36:04.627Z,19.30
2018-10-19T04:37:04.592Z,18.80
2018-10-19T04:38:04.568Z,19.60
2018-10-19T04:39:04.551Z,19.10
2018-10-19T04:40:04.488Z,19.20
2018-10-19T04:41:04.462Z,21.10
2018-10-19T04:42:04.614Z,20.10
2018-10-19T04:43:04.394Z,19.90
2018-10-19T04:44:04.338Z,20.10
2018-10-19T04:45:04.359Z,22.00
2018-10-19T04:46:04.273Z,21.40
2018-10-19T04:47:04.248Z,22.10
2018-10-19T04:48:04.199Z,22.40
2018-10-19T04:49:04.166Z,21.90
2018-10-19T04:50:04.123Z,22.30
2018-10-19T04:51:04.153Z,21.80
2018-10-19T04:52:04.057Z,22.20
2018-10-19T04:53:04.036Z,23.90
2018-10-19T04:54:03.990Z,23.30
2018-10-19T04:55:03.949Z,23.30
2018-10-19T04:56:03.903Z,23.60
2018-10-19T04:57:03.904Z,26.00
2018-10-19T04:58:03.838Z,26.00
2018-10-19T04:59:03.847Z,27.90
2018-10-19T05:00:03.762Z,26.80
2018-10-19T05:01:03.723Z,27.30
2018-10-19T05:02:03.696Z,26.10
2018-10-19T05:03:03.758Z,26.30
2018-10-19T05:04:03.632Z,26.30
2018-10-19T05:05:03.608Z,26.10
2018-10-19T05:06:03.675Z,25.50
2018-10-19T05:07:03.517Z,26.90
2018-10-19T05:08:03.483Z,27.70
2018-10-19T05:09:03.449Z,27.70
2018-10-19T05:10:03.401Z,28.50
2018-10-19T05:11:03.411Z,28.60
2018-10-19T05:12:03.331Z,29.80
2018-10-19T05:13:03.359Z,29.60
2018-10-19T05:14:03.286Z,31.70
2018-10-19T05:15:03.219Z,31.50
2018-10-19T05:16:03.189Z,30.10
2018-10-19T05:17:03.202Z,33.60
2018-10-19T05:18:03.106Z,32.80
2018-10-19T05:19:03.094Z,33.20
2018-10-19T05:20:03.081Z,33.80
2018-10-19T05:21:03.002Z,32.00
2018-10-19T05:22:02.987Z,33.10
2018-10-19T05:23:02.998Z,33.00
2018-10-19T05:24:02.909Z,33.30
2018-10-19T05:25:02.856Z,36.40
2018-10-19T05:26:02.923Z,35.50
2018-10-19T05:27:02.787Z,36.90
2018-10-19T05:28:02.746Z,35.70
2018-10-19T05:29:02.802Z,33.50
2018-10-19T05:30:02.675Z,35.00
2018-10-19T05:31:02.639Z,36.90
2018-10-19T05:32:02.700Z,36.10
2018-10-19T05:33:02.594Z,37.20
2018-10-19T05:34:02.525Z,35.90
2018-10-19T05:35:02.611Z,36.40
2018-10-19T05:36:02.457Z,37.90
2018-10-19T05:37:02.417Z,39.00
2018-10-19T05:38:02.433Z,37.60
2018-10-19T05:39:02.348Z,39.80
2018-10-19T05:40:02.321Z,40.00
2018-10-19T05:41:02.369Z,40.50
2018-10-19T05:42:02.240Z,41.30
2018-10-19T05:43:02.196Z,43.70
2018-10-19T05:44:02.179Z,41.30
2018-10-19T05:45:02.137Z,39.70
2018-10-19T05:46:02.090Z,42.40
2018-10-19T05:47:02.069Z,40.20
2018-10-19T05:48:02.021Z,39.00
2018-10-19T05:49:01.984Z,39.00
2018-10-19T05:50:02.088Z,37.60
2018-10-19T05:51:01.913Z,35.60
2018-10-19T05:52:01.895Z,36.80
2018-10-19T05:53:01.860Z,38.70
2018-10-19T05:54:01.799Z,39.70
2018-10-19T05:55:01.761Z,40.10
2018-10-19T05:56:01.761Z,39.00
2018-10-19T05:57:01.689Z,40.10
2018-10-19T05:58:01.654Z,37.30
2018-10-19T05:59:01.628Z,41.30
2018-10-19T06:00:01.591Z,37.30
2018-10-19T06:01:01.550Z,40.30
2018-10-19T06:02:01.548Z,38.70
2018-10-19T06:03:01.469Z,37.90
2018-10-19T06:04:01.435Z,39.00
2018-10-19T06:05:01.434Z,40.00
2018-10-19T06:06:01.373Z,38.90
2018-10-19T06:07:01.323Z,40.30
2018-10-19T06:08:01.300Z,38.40
2018-10-19T06:09:01.252Z,39.70
2018-10-19T06:10:01.213Z,40.90
2018-10-19T06:11:01.204Z,40.40
2018-10-19T06:12:01.166Z,42.10
2018-10-19T06:13:01.105Z,39.60
2018-10-19T06:14:01.122Z,41.30
2018-10-19T06:15:01.039Z,39.70
2018-10-19T06:16:01.004Z,39.30
2018-10-19T06:17:01.034Z,39.40
2018-10-19T06:18:00.921Z,40.70
2018-10-19T06:19:00.888Z,41.80
2018-10-19T06:20:00.852Z,39.30
2018-10-19T06:21:00.845Z,41.90
2018-10-19T06:22:00.779Z,39.90
2018-10-19T06:23:00.752Z,39.20
2018-10-19T06:24:00.704Z,41.40
2018-10-19T06:25:00.665Z,39.60
2018-10-19T06:26:00.705Z,41.70
2018-10-19T06:27:00.648Z,38.60
2018-10-19T06:28:00.557Z,37.70
2018-10-19T06:29:00.572Z,39.20
2018-10-19T06:30:00.483Z,37.00
2018-10-19T06:31:00.452Z,36.90
2018-10-19T06:32:00.459Z,40.50
2018-10-19T06:33:00.380Z,36.80
2018-10-19T06:34:00.348Z,39.50
2018-10-19T06:35:00.382Z,38.80
2018-10-19T06:36:00.269Z,37.10
2018-10-19T06:37:00.235Z,37.60
2018-10-19T06:38:00.210Z,36.30
2018-10-19T06:39:00.155Z,37.10
2018-10-19T06:40:00.126Z,35.50
2018-10-19T06:41:00.086Z,36.10
2018-10-19T06:42:00.058Z,34.50
2018-10-19T06:43:00.012Z,33.50
2018-10-19T06:43:59.978Z,33.90
2018-10-19T06:44:59.940Z,33.80
2018-10-19T06:45:59.901Z,33.40
2018-10-19T06:46:59.892Z,33.20
2018-10-19T06:47:59.884Z,32.20
2018-10-19T06:49:00.625Z,32.80
2018-10-19T06:49:59.791Z,32.40
2018-10-19T06:50:59.717Z,31.20
2018-10-19T06:51:59.701Z,32.30
2018-10-19T06:52:59.654Z,31.60
2018-10-19T06:53:59.607Z,31.40
2018-10-19T06:54:59.575Z,31.40
2018-10-19T06:55:59.555Z,32.60
2018-10-19T06:56:59.514Z,32.10
2018-10-19T06:57:59.486Z,31.10
2018-10-19T06:58:59.460Z,30.40
2018-10-19T06:59:59.398Z,31.50
2018-10-19T07:00:59.354Z,31.70
2018-10-19T07:01:59.346Z,31.10
2018-10-19T07:02:59.295Z,31.60
2018-10-19T07:03:59.246Z,29.30
2018-10-19T07:04:59.216Z,30.10
2018-10-19T07:05:59.186Z,28.70
2018-10-19T07:06:59.138Z,28.40
2018-10-19T07:07:59.206Z,27.50
2018-10-19T07:08:59.068Z,30.20
2018-10-19T07:09:59.028Z,27.50
2018-10-19T07:10:59.044Z,28.50
2018-10-19T07:11:59.004Z,28.50
2018-10-19T07:12:58.930Z,28.60
2018-10-19T07:13:58.887Z,29.10
2018-10-19T07:14:58.849Z,28.80
2018-10-19T07:15:58.865Z,27.00
2018-10-19T07:16:58.786Z,27.40
2018-10-19T07:17:58.747Z,29.50
2018-10-19T07:18:58.717Z,28.40
2018-10-19T07:19:58.671Z,25.00
2018-10-19T07:20:58.640Z,26.40
2018-10-19T07:21:58.595Z,26.90
2018-10-19T07:22:58.570Z,26.00
2018-10-19T07:23:58.521Z,27.10
2018-10-19T07:24:58.486Z,27.10
2018-10-19T07:25:58.504Z,26.00
2018-10-19T07:26:58.413Z,26.20
2018-10-19T07:27:58.393Z,24.90
2018-10-19T07:28:58.348Z,23.70
2018-10-19T07:29:58.308Z,24.90
2018-10-19T07:30:58.270Z,25.00
2018-10-19T07:31:58.252Z,24.00
2018-10-19T07:32:58.197Z,24.50
2018-10-19T07:33:58.173Z,23.20
2018-10-19T07:34:58.129Z,23.50
2018-10-19T07:35:58.094Z,23.20
2018-10-19T07:36:58.066Z,24.10
2018-10-19T07:37:58.023Z,22.40
2018-10-19T07:38:57.992Z,23.20
2018-10-19T07:39:57.949Z,23.80
2018-10-19T07:40:57.933Z,24.10
2018-10-19T07:41:57.879Z,22.80
2018-10-19T07:42:57.843Z,24.20
2018-10-19T07:43:57.813Z,23.70
2018-10-19T07:44:57.769Z,24.00
2018-10-19T07:45:57.728Z,22.10
2018-10-19T07:46:57.700Z,23.60
2018-10-19T07:47:57.846Z,24.10
2018-10-19T07:48:57.635Z,23.50
2018-10-19T07:49:57.591Z,22.90
2018-10-19T07:50:57.549Z,22.80
2018-10-19T07:51:57.515Z,20.70
2018-10-19T07:52:57.533Z,23.80
2018-10-19T07:53:57.479Z,23.60
2018-10-19T07:54:57.408Z,23.10
2018-10-19T07:55:57.414Z,22.70
2018-10-19T07:56:57.333Z,22.70
2018-10-19T07:57:57.301Z,22.10
2018-10-19T07:58:57.287Z,21.90
2018-10-19T07:59:57.231Z,23.70
2018-10-19T08:00:57.193Z,22.40
2018-10-19T08:01:57.161Z,23.00
2018-10-19T08:02:57.122Z,20.30
2018-10-19T08:03:57.104Z,20.30
2018-10-19T08:04:57.079Z,22.30
2018-10-19T08:05:57.014Z,21.80
2018-10-19T08:06:56.980Z,21.10
2018-10-19T08:07:56.956Z,21.10
2018-10-19T08:08:56.906Z,20.30
2018-10-19T08:09:56.876Z,21.00
2018-10-19T08:10:56.857Z,20.80
2018-10-19T08:11:56.794Z,19.80
2018-10-19T08:12:56.758Z,19.40
2018-10-19T08:13:56.742Z,18.70
2018-10-19T08:14:56.697Z,19.60
2018-10-19T08:15:56.655Z,19.00
2018-10-19T08:16:56.670Z,19.40
2018-10-19T08:17:56.584Z,18.80
2018-10-19T08:18:56.549Z,17.80
2018-10-19T08:19:56.566Z,19.60
2018-10-19T08:20:56.541Z,19.70
2018-10-19T08:21:56.439Z,17.60
2018-10-19T08:22:56.467Z,18.50
2018-10-19T08:23:56.373Z,19.20
2018-10-19T08:24:56.357Z,18.20
2018-10-19T08:25:56.352Z,17.30
2018-10-19T08:26:56.270Z,17.60
2018-10-19T08:27:56.233Z,17.70
2018-10-19T08:28:56.255Z,17.80
2018-10-19T08:29:56.156Z,18.70
2018-10-19T08:30:56.130Z,18.20
2018-10-19T08:31:56.104Z,19.40
2018-10-19T08:32:56.058Z,16.20
2018-10-19T08:33:56.014Z,15.90
2018-10-19T08:34:55.988Z,15.90
2018-10-19T08:35:55.952Z,16.30
2018-10-19T08:36:55.910Z,16.00
2018-10-19T08:37:55.873Z,15.80
2018-10-19T08:38:55.841Z,15.80
2018-10-19T08:39:55.803Z,16.00
2018-10-19T08:40:55.779Z,16.20
2018-10-19T08:41:55.732Z,15.60
2018-10-19T08:42:55.740Z,15.40
2018-10-19T08:43:55.661Z,14.70
2018-10-19T08:44:55.634Z,14.60
2018-10-19T08:45:55.601Z,15.90
2018-10-19T08:46:55.602Z,15.70
2018-10-19T08:47:55.526Z,15.40
2018-10-19T08:48:55.513Z,14.20
2018-10-19T08:49:55.449Z,14.60
2018-10-19T08:50:55.471Z,14.80
2018-10-19T08:51:55.380Z,15.40
2018-10-19T08:52:55.383Z,13.70
2018-10-19T08:53:55.315Z,14.80
2018-10-19T08:54:55.322Z,14.10
2018-10-19T08:55:55.242Z,15.40
2018-10-19T08:56:55.224Z,15.20
2018-10-19T08:57:55.227Z,15.30
2018-10-19T08:58:55.144Z,16.40
2018-10-19T08:59:55.107Z,14.20
2018-10-19T09:00:55.068Z,14.30
2018-10-19T09:01:55.041Z,14.20
2018-10-19T09:02:55.007Z,14.00
2018-10-19T09:03:55.009Z,15.70
2018-10-19T09:04:54.993Z,14.30
2018-10-19T09:05:54.916Z,12.40
2018-10-19T09:06:54.866Z,13.90
2018-10-19T09:07:54.823Z,13.00
2018-10-19T09:08:54.791Z,12.60
2018-10-19T09:09:54.757Z,12.50
2018-10-19T09:10:54.737Z,12.90
2018-10-19T09:11:54.803Z,13.30
2018-10-19T09:12:54.699Z,13.70
2018-10-19T09:13:54.616Z,12.90
2018-10-19T09:14:54.611Z,12.10
2018-10-19T09:15:54.547Z,12.40
2018-10-19T09:16:54.526Z,12.00
2018-10-19T09:17:54.479Z,12.00
2018-10-19T09:18:54.444Z,11.40
2018-10-19T09:19:54.411Z,12.10
2018-10-19T09:20:54.380Z,12.10
2018-10-19T09:21:54.351Z,10.90
2018-10-19T09:22:54.349Z,11.90
2018-10-19T09:23:54.270Z,11.70
2018-10-19T09:24:54.243Z,11.40
2018-10-19T09:25:54.200Z,10.60
2018-10-19T09:26:54.212Z,10.90
2018-10-19T09:27:54.136Z,10.90
2018-10-19T09:28:54.108Z,12.80
2018-10-19T09:29:54.065Z,11.40
2018-10-19T09:30:54.032Z,11.70
2018-10-19T09:31:54.007Z,12.20
2018-10-19T09:32:53.964Z,12.60
2018-10-19T09:33:53.929Z,11.70
2018-10-19T09:34:53.912Z,11.80
2018-10-19T09:35:53.882Z,11.40
2018-10-19T09:36:53.855Z,11.90
2018-10-19T09:37:53.789Z,10.90
2018-10-19T09:38:53.801Z,11.30
2018-10-19T09:39:53.729Z,10.20
2018-10-19T09:40:53.715Z,10.10
2018-10-19T09:41:53.712Z,10.30
2018-10-19T09:42:53.671Z,10.00
2018-10-19T09:43:53.588Z,9.90
2018-10-19T09:44:53.556Z,9.80
2018-10-19T09:45:53.520Z,9.50
2018-10-19T09:46:53.545Z,9.30
2018-10-19T09:47:53.451Z,10.30
2018-10-19T09:48:53.455Z,10.30
2018-10-19T09:49:53.382Z,9.90
2018-10-19T09:50:53.352Z,9.90
2018-10-19T09:51:53.337Z,9.90
2018-10-19T09:52:53.314Z,10.00
2018-10-19T09:53:53.247Z,9.10
2018-10-19T09:54:53.215Z,8.60
2018-10-19T09:55:53.185Z,9.80
2018-10-19T09:56:53.153Z,8.80
2018-10-19T09:57:53.119Z,9.50
2018-10-19T09:58:53.120Z,8.50
2018-10-19T09:59:53.046Z,9.30
2018-10-19T10:00:53.059Z,9.70
2018-10-19T10:01:53.036Z,8.50
2018-10-19T10:02:52.962Z,8.50
2018-10-19T10:03:52.914Z,8.60
2018-10-19T10:04:52.886Z,8.70
2018-10-19T10:05:52.845Z,10.90
2018-10-19T10:06:52.845Z,8.80
2018-10-19T10:07:52.831Z,9.70
2018-10-19T10:08:52.787Z,8.40
2018-10-19T10:09:52.712Z,9.20
2018-10-19T10:10:52.678Z,9.20
2018-10-19T10:11:52.644Z,8.70
2018-10-19T10:12:52.658Z,8.50
2018-10-19T10:13:52.575Z,8.60
2018-10-19T10:14:52.594Z,10.30
2018-10-19T10:15:52.537Z,9.50
2018-10-19T10:16:52.489Z,9.00
2018-10-19T10:17:52.448Z,8.20
2018-10-19T10:18:52.460Z,8.90
2018-10-19T10:19:52.378Z,8.70
2018-10-19T10:20:52.347Z,8.90
2018-10-19T10:21:52.341Z,8.60
2018-10-19T10:22:52.285Z,8.90
2018-10-19T10:23:52.242Z,9.00
2018-10-19T10:24:52.259Z,8.40
2018-10-19T10:25:52.174Z,9.50
2018-10-19T10:26:52.142Z,9.00
2018-10-19T10:27:52.123Z,9.30
2018-10-19T10:28:52.077Z,9.40
2018-10-19T10:29:52.046Z,8.30
2018-10-19T10:30:52.013Z,9.10
2018-10-19T10:31:51.977Z,8.70
2018-10-19T10:32:51.942Z,9.10
2018-10-19T10:33:51.919Z,8.40
2018-10-19T10:34:51.875Z,8.60
2018-10-19T10:35:51.844Z,8.20
2018-10-19T10:36:51.808Z,8.20
2018-10-19T10:37:51.775Z,8.30
2018-10-19T10:38:51.795Z,9.30
2018-10-19T10:39:51.724Z,8.40
2018-10-19T10:40:51.681Z,8.80
2018-10-19T10:41:51.645Z,8.90
2018-10-19T10:42:51.614Z,7.80
2018-10-19T10:43:51.589Z,7.70
2018-10-19T10:44:51.548Z,7.70
2018-10-19T10:45:51.515Z,8.90
2018-10-19T10:46:51.510Z,8.00
2018-10-19T10:47:51.448Z,7.90
2018-10-19T10:48:51.429Z,7.40
2018-10-19T10:49:51.384Z,7.70
2018-10-19T10:50:51.353Z,7.60
2018-10-19T10:51:51.317Z,7.90
2018-10-19T10:52:51.286Z,7.20
2018-10-19T10:53:51.260Z,7.30
2018-10-19T10:54:51.219Z,7.10
2018-10-19T10:55:51.184Z,6.30
2018-10-19T10:56:51.159Z,6.40
2018-10-19T10:57:51.123Z,6.90
2018-10-19T10:58:51.100Z,6.90
2018-10-19T10:59:51.057Z,6.10
2018-10-19T11:00:51.023Z,6.50
2018-10-19T11:01:51.002Z,6.00
2018-10-19T11:02:51.168Z,6.40
2018-10-19T11:03:50.934Z,6.50
2018-10-19T11:04:50.893Z,7.60
2018-10-19T11:05:50.861Z,7.00
2018-10-19T11:06:50.831Z,5.90
2018-10-19T11:07:50.799Z,6.70
2018-10-19T11:08:50.773Z,5.80
2018-10-19T11:09:50.731Z,6.00
2018-10-19T11:10:50.700Z,5.50
2018-10-19T11:11:50.668Z,6.50
2018-10-19T11:12:50.636Z,6.00
2018-10-19T11:13:50.616Z,6.20
2018-10-19T11:14:50.572Z,6.10
2018-10-19T11:15:50.543Z,6.50
2018-10-19T11:16:50.508Z,6.10
2018-10-19T11:17:50.477Z,5.70
2018-10-19T11:18:50.451Z,5.90
2018-10-19T11:19:50.412Z,6.60
2018-10-19T11:20:50.380Z,6.20
2018-10-19T11:21:50.348Z,6.10
2018-10-19T11:22:50.326Z,6.30
2018-10-19T11:23:50.338Z,5.70
2018-10-19T11:24:50.257Z,6.50
2018-10-19T11:25:50.221Z,5.40
2018-10-19T11:26:50.190Z,6.10
2018-10-19T11:27:50.161Z,6.10
2018-10-19T11:28:50.134Z,5.60
2018-10-19T11:29:50.092Z,6.30
2018-10-19T11:30:50.063Z,5.70
2018-10-19T11:31:50.031Z,5.70
2018-10-19T11:32:49.999Z,5.70
2018-10-19T11:33:49.984Z,4.70
2018-10-19T11:34:49.936Z,5.00
2018-10-19T11:35:49.905Z,5.50
2018-10-19T11:36:49.885Z,5.30
2018-10-19T11:37:49.894Z,5.20
2018-10-19T11:38:49.811Z,5.30
2018-10-19T11:39:49.786Z,5.10
2018-10-19T11:40:49.752Z,4.90
2018-10-19T11:41:49.722Z,6.10
2018-10-19T11:42:49.695Z,5.80
2018-10-19T11:43:49.654Z,5.50
2018-10-19T11:44:49.630Z,4.80
2018-10-19T11:45:49.594Z,5.10
2018-10-19T11:46:49.560Z,5.20
2018-10-19T11:47:49.550Z,5.50
2018-10-19T11:48:49.556Z,5.30
2018-10-19T11:49:49.559Z,5.10
2018-10-19T11:50:49.434Z,5.30
2018-10-19T11:51:49.403Z,4.90
2018-10-19T11:52:49.376Z,5.60
2018-10-19T11:53:49.339Z,5.50
2018-10-19T11:54:49.326Z,5.00
2018-10-19T11:55:49.279Z,5.70
2018-10-19T11:56:49.248Z,5.10
2018-10-19T11:57:49.215Z,5.30
2018-10-19T11:58:49.187Z,5.50
2018-10-19T11:59:49.168Z,5.30
2018-10-19T12:00:49.124Z,5.00
2018-10-19T12:01:49.087Z,5.00
2018-10-19T12:02:49.060Z,5.60
2018-10-19T12:03:49.029Z,6.90
2018-10-19T12:04:49.004Z,5.50
2018-10-19T12:05:48.970Z,5.20
2018-10-19T12:06:48.931Z,4.80
2018-10-19T12:07:48.907Z,6.10
2018-10-19T12:08:48.873Z,5.50
2018-10-19T12:09:48.856Z,6.10
2018-10-19T12:10:48.907Z,5.40
2018-10-19T12:11:48.778Z,5.30
2018-10-19T12:12:48.745Z,5.40
2018-10-19T12:13:48.715Z,4.80
2018-10-19T12:14:48.684Z,6.10
2018-10-19T12:15:48.664Z,5.20
2018-10-19T12:16:48.713Z,5.70
2018-10-19T12:17:48.588Z,6.50
2018-10-19T12:18:48.559Z,5.40
2018-10-19T12:19:48.529Z,5.10
2018-10-19T12:20:48.535Z,5.60
2018-10-19T12:21:48.464Z,5.20
2018-10-19T12:22:48.435Z,5.00
2018-10-19T12:23:48.402Z,5.40
2018-10-19T12:24:48.371Z,4.80
2018-10-19T12:25:48.347Z,5.70
2018-10-19T12:26:48.309Z,5.10
2018-10-19T12:27:48.279Z,4.90
2018-10-19T12:28:48.250Z,5.60
2018-10-19T12:29:48.214Z,5.70
2018-10-19T12:30:48.191Z,4.90
2018-10-19T12:31:48.151Z,4.60
2018-10-19T12:32:48.122Z,5.20
2018-10-19T12:33:48.090Z,5.20
2018-10-19T12:34:48.060Z,5.30
2018-10-19T12:35:48.040Z,5.30
2018-10-19T12:36:47.995Z,5.30
2018-10-19T12:37:47.966Z,5.20
2018-10-19T12:38:47.943Z,5.40
2018-10-19T12:39:47.913Z,4.50
2018-10-19T12:40:47.881Z,5.10
2018-10-19T12:41:47.842Z,5.10
2018-10-19T12:42:47.811Z,5.50
2018-10-19T12:43:47.780Z,5.70
2018-10-19T12:44:47.752Z,4.60
2018-10-19T12:45:47.736Z,5.00
2018-10-19T12:46:47.689Z,5.10
2018-10-19T12:47:47.661Z,4.60
2018-10-19T12:48:47.626Z,5.20
2018-10-19T12:49:47.598Z,5.40
2018-10-19T12:50:47.567Z,5.20
2018-10-19T12:51:47.541Z,5.40
2018-10-19T12:52:47.500Z,4.90
2018-10-19T12:53:47.493Z,5.40
2018-10-19T12:54:47.445Z,4.70
2018-10-19T12:55:47.411Z,4.60
2018-10-19T12:56:47.397Z,5.00
2018-10-19T12:57:47.349Z,5.00